sensor_id;sensor_type;location;lat;lon;timestamp;P1;durP1;ratioP1;P2;durP2;ratioP2
48361;SDS011;34510;51.888;5.670;2023-02-28T00:04:10;624.23;;;155.93;;
48361;SDS011;34510;51.888;5.670;2023-02-28T00:09:12;666.03;;;175.43;;
48361;SDS011;34510;51.888;5.670;2023-02-28T00:14:14;640.90;;;178.87;;
48361;SDS011;34510;51.888;5.670;2023-02-28T00:19:16;694.53;;;233.40;;
48361;SDS011;34510;51.888;5.670;2023-02-28T00:24:18;689.37;;;228.23;;
48361;SDS011;34510;51.888;5.670;2023-02-28T00:29:20;696.43;;;199.23;;
48361;SDS011;34510;51.888;5.670;2023-02-28T00:34:22;695.90;;;214.33;;
48361;SDS011;34510;51.888;5.670;2023-02-28T00:39:24;695.70;;;242.43;;
48361;SDS011;34510;51.888;5.670;2023-02-28T00:44:26;683.87;;;216.43;;
48361;SDS011;34510;51.888;5.670;2023-02-28T00:49:28;689.07;;;237.17;;
48361;SDS011;34510;51.888;5.670;2023-02-28T00:54:30;682.07;;;225.43;;
48361;SDS011;34510;51.888;5.670;2023-02-28T00:59:32;620.17;;;184.80;;
48361;SDS011;34510;51.888;5.670;2023-02-28T01:04:34;652.57;;;171.17;;
48361;SDS011;34510;51.888;5.670;2023-02-28T01:09:36;676.57;;;185.23;;
48361;SDS011;34510;51.888;5.670;2023-02-28T01:14:38;674.47;;;188.63;;
48361;SDS011;34510;51.888;5.670;2023-02-28T01:19:41;697.13;;;230.07;;
48361;SDS011;34510;51.888;5.670;2023-02-28T01:24:44;699.93;;;246.30;;
48361;SDS011;34510;51.888;5.670;2023-02-28T01:29:50;637.77;;;170.70;;
48361;SDS011;34510;51.888;5.670;2023-02-28T01:34:52;674.97;;;226.63;;
48361;SDS011;34510;51.888;5.670;2023-02-28T01:39:54;677.67;;;221.67;;
48361;SDS011;34510;51.888;5.670;2023-02-28T01:44:58;676.10;;;227.53;;
48361;SDS011;34510;51.888;5.670;2023-02-28T01:50:01;676.37;;;227.10;;
48361;SDS011;34510;51.888;5.670;2023-02-28T01:55:06;677.37;;;230.47;;
48361;SDS011;34510;51.888;5.670;2023-02-28T02:00:14;679.80;;;225.40;;
48361;SDS011;34510;51.888;5.670;2023-02-28T02:05:25;695.97;;;267.10;;
48361;SDS011;34510;51.888;5.670;2023-02-28T02:10:36;704.67;;;251.93;;
48361;SDS011;34510;51.888;5.670;2023-02-28T02:37:22;713.07;;;272.57;;
48361;SDS011;34510;51.888;5.670;2023-02-28T02:48:09;674.37;;;216.63;;
48361;SDS011;34510;51.888;5.670;2023-02-28T02:53:15;696.97;;;254.77;;
48361;SDS011;34510;51.888;5.670;2023-02-28T02:58:23;686.45;;;236.82;;
48361;SDS011;34510;51.888;5.670;2023-02-28T03:03:28;686.13;;;247.90;;
48361;SDS011;34510;51.888;5.670;2023-02-28T03:08:36;697.87;;;263.00;;
48361;SDS011;34510;51.888;5.670;2023-02-28T03:14:01;684.60;;;219.02;;
48361;SDS011;34510;51.888;5.670;2023-02-28T03:30:08;680.13;;;208.40;;
48361;SDS011;34510;51.888;5.670;2023-02-28T03:35:13;677.73;;;229.17;;
48361;SDS011;34510;51.888;5.670;2023-02-28T03:40:25;678.97;;;237.13;;
48361;SDS011;34510;51.888;5.670;2023-02-28T03:45:32;689.75;;;245.82;;
48361;SDS011;34510;51.888;5.670;2023-02-28T03:50:41;689.00;;;232.30;;
48361;SDS011;34510;51.888;5.670;2023-02-28T03:55:47;686.47;;;250.03;;
48361;SDS011;34510;51.888;5.670;2023-02-28T04:00:56;693.13;;;232.10;;
48361;SDS011;34510;51.888;5.670;2023-02-28T04:06:13;673.63;;;176.90;;
48361;SDS011;34510;51.888;5.670;2023-02-28T04:11:20;673.63;;;197.53;;
48361;SDS011;34510;51.888;5.670;2023-02-28T04:16:24;675.17;;;199.27;;
48361;SDS011;34510;51.888;5.670;2023-02-28T04:21:36;636.40;;;162.87;;
48361;SDS011;34510;51.888;5.670;2023-02-28T04:26:44;691.85;;;249.27;;
48361;SDS011;34510;51.888;5.670;2023-02-28T04:31:47;673.00;;;198.97;;
48361;SDS011;34510;51.888;5.670;2023-02-28T04:36:50;655.10;;;179.80;;
48361;SDS011;34510;51.888;5.670;2023-02-28T04:42:13;624.47;;;154.43;;
48361;SDS011;34510;51.888;5.670;2023-02-28T04:47:15;644.67;;;166.10;;
48361;SDS011;34510;51.888;5.670;2023-02-28T04:52:17;689.25;;;215.32;;
48361;SDS011;34510;51.888;5.670;2023-02-28T04:57:19;688.85;;;211.27;;
48361;SDS011;34510;51.888;5.670;2023-02-28T05:02:21;684.33;;;208.10;;
48361;SDS011;34510;51.888;5.670;2023-02-28T05:07:25;683.78;;;205.57;;
48361;SDS011;34510;51.888;5.670;2023-02-28T05:12:27;681.33;;;203.93;;
48361;SDS011;34510;51.888;5.670;2023-02-28T05:17:29;688.45;;;220.07;;
48361;SDS011;34510;51.888;5.670;2023-02-28T05:22:31;683.35;;;207.73;;
48361;SDS011;34510;51.888;5.670;2023-02-28T05:27:33;680.08;;;205.77;;
48361;SDS011;34510;51.888;5.670;2023-02-28T05:32:38;684.00;;;200.68;;
48361;SDS011;34510;51.888;5.670;2023-02-28T05:37:44;684.20;;;209.55;;
48361;SDS011;34510;51.888;5.670;2023-02-28T05:42:46;685.83;;;206.40;;
48361;SDS011;34510;51.888;5.670;2023-02-28T05:47:48;687.38;;;217.05;;
48361;SDS011;34510;51.888;5.670;2023-02-28T05:52:50;691.72;;;213.43;;
48361;SDS011;34510;51.888;5.670;2023-02-28T05:57:53;682.83;;;212.93;;
48361;SDS011;34510;51.888;5.670;2023-02-28T06:02:56;685.25;;;214.70;;
48361;SDS011;34510;51.888;5.670;2023-02-28T06:08:01;679.40;;;204.50;;
48361;SDS011;34510;51.888;5.670;2023-02-28T06:13:03;696.25;;;235.10;;
48361;SDS011;34510;51.888;5.670;2023-02-28T06:18:06;681.90;;;215.35;;
48361;SDS011;34510;51.888;5.670;2023-02-28T06:23:08;686.72;;;217.40;;
48361;SDS011;34510;51.888;5.670;2023-02-28T06:28:10;689.30;;;210.52;;
48361;SDS011;34510;51.888;5.670;2023-02-28T06:33:12;697.95;;;220.93;;
48361;SDS011;34510;51.888;5.670;2023-02-28T06:38:14;695.78;;;227.88;;
48361;SDS011;34510;51.888;5.670;2023-02-28T06:43:16;696.13;;;221.50;;
48361;SDS011;34510;51.888;5.670;2023-02-28T06:48:18;691.30;;;225.48;;
48361;SDS011;34510;51.888;5.670;2023-02-28T06:53:20;687.13;;;221.18;;
48361;SDS011;34510;51.888;5.670;2023-02-28T06:58:22;688.15;;;217.98;;
48361;SDS011;34510;51.888;5.670;2023-02-28T07:03:24;693.10;;;222.48;;
48361;SDS011;34510;51.888;5.670;2023-02-28T07:08:26;688.33;;;211.00;;
48361;SDS011;34510;51.888;5.670;2023-02-28T07:13:29;693.58;;;225.82;;
48361;SDS011;34510;51.888;5.670;2023-02-28T07:18:31;689.78;;;224.48;;
48361;SDS011;34510;51.888;5.670;2023-02-28T07:23:33;691.90;;;235.77;;
48361;SDS011;34510;51.888;5.670;2023-02-28T07:28:36;702.13;;;235.00;;
48361;SDS011;34510;51.888;5.670;2023-02-28T07:33:38;695.70;;;232.02;;
48361;SDS011;34510;51.888;5.670;2023-02-28T07:38:41;699.03;;;244.57;;
48361;SDS011;34510;51.888;5.670;2023-02-28T07:43:48;698.60;;;249.20;;
48361;SDS011;34510;51.888;5.670;2023-02-28T07:48:50;698.30;;;238.93;;
48361;SDS011;34510;51.888;5.670;2023-02-28T07:53:52;689.55;;;247.13;;
48361;SDS011;34510;51.888;5.670;2023-02-28T07:58:54;690.67;;;246.85;;
48361;SDS011;34510;51.888;5.670;2023-02-28T08:03:56;696.25;;;254.68;;
48361;SDS011;34510;51.888;5.670;2023-02-28T08:08:58;700.58;;;265.73;;
48361;SDS011;34510;51.888;5.670;2023-02-28T08:14:00;700.45;;;281.63;;
48361;SDS011;34510;51.888;5.670;2023-02-28T08:19:02;708.90;;;285.05;;
48361;SDS011;34510;51.888;5.670;2023-02-28T08:24:04;704.13;;;292.47;;
48361;SDS011;34510;51.888;5.670;2023-02-28T08:29:07;711.95;;;298.13;;
48361;SDS011;34510;51.888;5.670;2023-02-28T08:34:10;710.35;;;309.38;;
48361;SDS011;34510;51.888;5.670;2023-02-28T08:39:14;714.88;;;303.05;;
48361;SDS011;34510;51.888;5.670;2023-02-28T08:44:16;703.88;;;302.52;;
48361;SDS011;34510;51.888;5.670;2023-02-28T08:49:18;700.95;;;294.25;;
48361;SDS011;34510;51.888;5.670;2023-02-28T08:54:20;701.45;;;294.67;;
48361;SDS011;34510;51.888;5.670;2023-02-28T08:59:23;701.63;;;295.80;;
48361;SDS011;34510;51.888;5.670;2023-02-28T09:04:25;702.67;;;307.80;;
48361;SDS011;34510;51.888;5.670;2023-02-28T09:09:27;709.08;;;301.27;;
48361;SDS011;34510;51.888;5.670;2023-02-28T09:14:29;712.70;;;318.02;;
48361;SDS011;34510;51.888;5.670;2023-02-28T09:19:31;704.08;;;312.17;;
48361;SDS011;34510;51.888;5.670;2023-02-28T09:24:33;707.42;;;314.23;;
48361;SDS011;34510;51.888;5.670;2023-02-28T09:29:36;704.95;;;306.17;;
48361;SDS011;34510;51.888;5.670;2023-02-28T09:34:38;712.63;;;313.77;;
48361;SDS011;34510;51.888;5.670;2023-02-28T09:39:41;706.17;;;302.88;;
48361;SDS011;34510;51.888;5.670;2023-02-28T09:44:43;714.78;;;322.58;;
48361;SDS011;34510;51.888;5.670;2023-02-28T09:49:48;714.90;;;323.88;;
48361;SDS011;34510;51.888;5.670;2023-02-28T09:54:51;715.03;;;326.37;;
48361;SDS011;34510;51.888;5.670;2023-02-28T10:00:05;718.28;;;342.98;;
48361;SDS011;34510;51.888;5.670;2023-02-28T10:05:15;736.83;;;363.23;;
48361;SDS011;34510;51.888;5.670;2023-02-28T10:10:32;736.35;;;361.88;;
48361;SDS011;34510;51.888;5.670;2023-02-28T10:15:40;736.45;;;371.77;;
48361;SDS011;34510;51.888;5.670;2023-02-28T10:20:43;726.47;;;353.67;;
48361;SDS011;34510;51.888;5.670;2023-02-28T10:25:54;728.90;;;357.08;;
48361;SDS011;34510;51.888;5.670;2023-02-28T10:31:00;719.75;;;360.17;;
48361;SDS011;34510;51.888;5.670;2023-02-28T10:36:03;722.90;;;371.58;;
48361;SDS011;34510;51.888;5.670;2023-02-28T10:41:09;681.80;;;246.97;;
48361;SDS011;34510;51.888;5.670;2023-02-28T10:46:15;729.30;;;372.20;;
48361;SDS011;34510;51.888;5.670;2023-02-28T10:51:27;728.13;;;382.05;;
48361;SDS011;34510;51.888;5.670;2023-02-28T10:56:37;725.03;;;386.07;;
48361;SDS011;34510;51.888;5.670;2023-02-28T11:06:59;722.40;;;388.60;;
48361;SDS011;34510;51.888;5.670;2023-02-28T11:12:04;725.13;;;387.93;;
48361;SDS011;34510;51.888;5.670;2023-02-28T11:17:19;724.88;;;380.85;;
48361;SDS011;34510;51.888;5.670;2023-02-28T11:22:24;728.85;;;391.30;;
48361;SDS011;34510;51.888;5.670;2023-02-28T11:32:32;723.03;;;406.53;;
48361;SDS011;34510;51.888;5.670;2023-02-28T11:37:35;729.27;;;424.67;;
48361;SDS011;34510;51.888;5.670;2023-02-28T11:48:15;721.83;;;397.33;;
48361;SDS011;34510;51.888;5.670;2023-02-28T12:15:02;727.87;;;399.10;;
48361;SDS011;34510;51.888;5.670;2023-02-28T12:20:33;731.27;;;409.83;;
48361;SDS011;34510;51.888;5.670;2023-02-28T12:36:39;705.17;;;337.30;;
48361;SDS011;34510;51.888;5.670;2023-02-28T12:42:19;729.07;;;404.40;;
48361;SDS011;34510;51.888;5.670;2023-02-28T12:47:18;730.08;;;399.00;;
48361;SDS011;34510;51.888;5.670;2023-02-28T12:52:23;724.63;;;395.87;;
48361;SDS011;34510;51.888;5.670;2023-02-28T12:57:35;726.83;;;399.67;;
48361;SDS011;34510;51.888;5.670;2023-02-28T13:13:27;705.27;;;339.83;;
48361;SDS011;34510;51.888;5.670;2023-02-28T13:18:44;725.17;;;384.40;;
48361;SDS011;34510;51.888;5.670;2023-02-28T13:28:58;724.38;;;386.02;;
48361;SDS011;34510;51.888;5.670;2023-02-28T13:34:06;725.60;;;391.98;;
48361;SDS011;34510;51.888;5.670;2023-02-28T13:45:19;725.42;;;394.02;;
48361;SDS011;34510;51.888;5.670;2023-02-28T14:11:28;712.17;;;355.43;;
48361;SDS011;34510;51.888;5.670;2023-02-28T14:16:42;712.63;;;355.33;;
48361;SDS011;34510;51.888;5.670;2023-02-28T14:22:00;712.47;;;349.67;;
48361;SDS011;34510;51.888;5.670;2023-02-28T14:32:32;708.70;;;345.30;;
48361;SDS011;34510;51.888;5.670;2023-02-28T14:37:39;710.60;;;345.77;;
48361;SDS011;34510;51.888;5.670;2023-02-28T14:42:47;705.77;;;328.67;;
48361;SDS011;34510;51.888;5.670;2023-02-28T14:47:57;720.37;;;345.53;;
48361;SDS011;34510;51.888;5.670;2023-02-28T14:53:00;706.63;;;334.77;;
48361;SDS011;34510;51.888;5.670;2023-02-28T14:58:04;707.60;;;342.77;;
48361;SDS011;34510;51.888;5.670;2023-02-28T15:08:31;704.73;;;334.43;;
48361;SDS011;34510;51.888;5.670;2023-02-28T15:29:48;705.47;;;332.40;;
48361;SDS011;34510;51.888;5.670;2023-02-28T15:34:53;699.27;;;327.47;;
48361;SDS011;34510;51.888;5.670;2023-02-28T15:39:56;708.30;;;317.33;;
48361;SDS011;34510;51.888;5.670;2023-02-28T15:45:00;708.93;;;318.53;;
48361;SDS011;34510;51.888;5.670;2023-02-28T15:50:04;709.60;;;328.55;;
48361;SDS011;34510;51.888;5.670;2023-02-28T15:55:16;706.00;;;317.70;;
48361;SDS011;34510;51.888;5.670;2023-02-28T16:00:22;702.17;;;324.40;;
48361;SDS011;34510;51.888;5.670;2023-02-28T16:05:27;709.63;;;333.87;;
48361;SDS011;34510;51.888;5.670;2023-02-28T16:10:34;702.43;;;322.80;;
48361;SDS011;34510;51.888;5.670;2023-02-28T16:15:37;703.20;;;321.47;;
48361;SDS011;34510;51.888;5.670;2023-02-28T16:20:44;702.83;;;310.10;;
48361;SDS011;34510;51.888;5.670;2023-02-28T16:25:46;699.77;;;312.43;;
48361;SDS011;34510;51.888;5.670;2023-02-28T16:30:50;691.50;;;269.53;;
48361;SDS011;34510;51.888;5.670;2023-02-28T16:35:53;700.10;;;302.60;;
48361;SDS011;34510;51.888;5.670;2023-02-28T16:40:56;703.20;;;315.00;;
48361;SDS011;34510;51.888;5.670;2023-02-28T16:46:01;697.47;;;286.23;;
48361;SDS011;34510;51.888;5.670;2023-02-28T16:51:05;699.40;;;312.47;;
48361;SDS011;34510;51.888;5.670;2023-02-28T16:56:10;697.40;;;291.40;;
48361;SDS011;34510;51.888;5.670;2023-02-28T17:01:17;696.00;;;296.30;;
48361;SDS011;34510;51.888;5.670;2023-02-28T17:06:24;692.67;;;292.67;;
48361;SDS011;34510;51.888;5.670;2023-02-28T17:11:29;696.87;;;293.47;;
48361;SDS011;34510;51.888;5.670;2023-02-28T17:16:33;693.37;;;288.67;;
48361;SDS011;34510;51.888;5.670;2023-02-28T17:21:37;694.57;;;292.13;;
48361;SDS011;34510;51.888;5.670;2023-02-28T17:26:39;697.13;;;257.83;;
48361;SDS011;34510;51.888;5.670;2023-02-28T17:31:42;694.87;;;251.40;;
48361;SDS011;34510;51.888;5.670;2023-02-28T17:36:45;689.53;;;227.27;;
48361;SDS011;34510;51.888;5.670;2023-02-28T17:41:47;701.55;;;278.73;;
48361;SDS011;34510;51.888;5.670;2023-02-28T17:46:50;705.92;;;287.98;;
48361;SDS011;34510;51.888;5.670;2023-02-28T17:51:52;698.17;;;269.88;;
48361;SDS011;34510;51.888;5.670;2023-02-28T17:56:54;699.38;;;278.50;;
48361;SDS011;34510;51.888;5.670;2023-02-28T18:01:57;697.25;;;271.40;;
48361;SDS011;34510;51.888;5.670;2023-02-28T18:06:58;693.53;;;264.53;;
48361;SDS011;34510;51.888;5.670;2023-02-28T18:12:01;694.80;;;257.23;;
48361;SDS011;34510;51.888;5.670;2023-02-28T18:17:03;699.70;;;269.60;;
48361;SDS011;34510;51.888;5.670;2023-02-28T18:22:05;691.27;;;253.57;;
48361;SDS011;34510;51.888;5.670;2023-02-28T18:27:08;697.70;;;259.20;;
48361;SDS011;34510;51.888;5.670;2023-02-28T18:32:12;695.78;;;254.07;;
48361;SDS011;34510;51.888;5.670;2023-02-28T18:37:14;701.70;;;266.90;;
48361;SDS011;34510;51.888;5.670;2023-02-28T18:42:16;699.30;;;268.33;;
48361;SDS011;34510;51.888;5.670;2023-02-28T18:47:18;694.63;;;268.20;;
48361;SDS011;34510;51.888;5.670;2023-02-28T18:52:20;694.70;;;271.47;;
48361;SDS011;34510;51.888;5.670;2023-02-28T18:57:24;687.47;;;239.83;;
48361;SDS011;34510;51.888;5.670;2023-02-28T19:02:26;690.10;;;246.50;;
48361;SDS011;34510;51.888;5.670;2023-02-28T19:07:28;698.85;;;249.00;;
48361;SDS011;34510;51.888;5.670;2023-02-28T19:12:32;698.92;;;245.30;;
48361;SDS011;34510;51.888;5.670;2023-02-28T19:17:35;696.13;;;259.37;;
48361;SDS011;34510;51.888;5.670;2023-02-28T19:22:37;694.93;;;245.70;;
48361;SDS011;34510;51.888;5.670;2023-02-28T19:27:40;692.13;;;254.37;;
48361;SDS011;34510;51.888;5.670;2023-02-28T19:32:42;685.87;;;241.37;;
48361;SDS011;34510;51.888;5.670;2023-02-28T19:37:44;690.20;;;249.57;;
48361;SDS011;34510;51.888;5.670;2023-02-28T19:42:46;692.83;;;241.83;;
48361;SDS011;34510;51.888;5.670;2023-02-28T19:47:48;692.57;;;233.07;;
48361;SDS011;34510;51.888;5.670;2023-02-28T19:52:50;688.00;;;234.07;;
48361;SDS011;34510;51.888;5.670;2023-02-28T19:57:52;688.87;;;233.33;;
48361;SDS011;34510;51.888;5.670;2023-02-28T20:02:54;689.20;;;240.20;;
48361;SDS011;34510;51.888;5.670;2023-02-28T20:07:56;697.37;;;261.73;;
48361;SDS011;34510;51.888;5.670;2023-02-28T20:12:57;699.47;;;259.17;;
48361;SDS011;34510;51.888;5.670;2023-02-28T20:18:00;688.60;;;222.93;;
48361;SDS011;34510;51.888;5.670;2023-02-28T20:23:03;689.88;;;216.80;;
48361;SDS011;34510;51.888;5.670;2023-02-28T20:28:05;693.72;;;220.32;;
48361;SDS011;34510;51.888;5.670;2023-02-28T20:33:07;695.25;;;221.15;;
48361;SDS011;34510;51.888;5.670;2023-02-28T20:38:10;688.30;;;221.60;;
48361;SDS011;34510;51.888;5.670;2023-02-28T20:43:12;690.55;;;218.43;;
48361;SDS011;34510;51.888;5.670;2023-02-28T20:48:14;688.33;;;217.60;;
48361;SDS011;34510;51.888;5.670;2023-02-28T20:53:16;684.10;;;216.93;;
48361;SDS011;34510;51.888;5.670;2023-02-28T20:58:18;703.70;;;252.53;;
48361;SDS011;34510;51.888;5.670;2023-02-28T21:03:20;694.93;;;216.93;;
48361;SDS011;34510;51.888;5.670;2023-02-28T21:08:22;680.40;;;207.02;;
48361;SDS011;34510;51.888;5.670;2023-02-28T21:13:24;702.13;;;263.77;;
48361;SDS011;34510;51.888;5.670;2023-02-28T21:18:27;701.83;;;227.33;;
48361;SDS011;34510;51.888;5.670;2023-02-28T21:23:29;701.70;;;255.63;;
48361;SDS011;34510;51.888;5.670;2023-02-28T21:28:32;701.00;;;182.27;;
48361;SDS011;34510;51.888;5.670;2023-02-28T21:33:34;689.33;;;226.27;;
48361;SDS011;34510;51.888;5.670;2023-02-28T21:38:37;691.03;;;207.90;;
48361;SDS011;34510;51.888;5.670;2023-02-28T21:43:39;693.87;;;219.23;;
48361;SDS011;34510;51.888;5.670;2023-02-28T21:48:42;686.53;;;227.03;;
48361;SDS011;34510;51.888;5.670;2023-02-28T21:53:44;681.90;;;173.10;;
48361;SDS011;34510;51.888;5.670;2023-02-28T21:58:47;691.07;;;192.07;;
48361;SDS011;34510;51.888;5.670;2023-02-28T22:03:49;696.97;;;200.33;;
48361;SDS011;34510;51.888;5.670;2023-02-28T22:08:54;673.90;;;199.70;;
48361;SDS011;34510;51.888;5.670;2023-02-28T22:13:59;662.27;;;173.23;;
48361;SDS011;34510;51.888;5.670;2023-02-28T22:19:01;690.10;;;193.47;;
48361;SDS011;34510;51.888;5.670;2023-02-28T22:24:08;674.13;;;162.40;;
48361;SDS011;34510;51.888;5.670;2023-02-28T22:29:10;666.00;;;157.17;;
48361;SDS011;34510;51.888;5.670;2023-02-28T22:34:12;675.03;;;195.27;;
48361;SDS011;34510;51.888;5.670;2023-02-28T22:39:14;660.10;;;172.23;;
48361;SDS011;34510;51.888;5.670;2023-02-28T22:44:16;675.07;;;189.43;;
48361;SDS011;34510;51.888;5.670;2023-02-28T22:49:18;660.57;;;159.97;;
48361;SDS011;34510;51.888;5.670;2023-02-28T22:54:21;635.10;;;147.33;;
48361;SDS011;34510;51.888;5.670;2023-02-28T22:59:23;639.70;;;151.23;;
48361;SDS011;34510;51.888;5.670;2023-02-28T23:04:24;653.90;;;152.60;;
48361;SDS011;34510;51.888;5.670;2023-02-28T23:09:27;633.23;;;145.77;;
48361;SDS011;34510;51.888;5.670;2023-02-28T23:14:29;622.03;;;145.13;;
48361;SDS011;34510;51.888;5.670;2023-02-28T23:19:31;610.33;;;142.90;;
48361;SDS011;34510;51.888;5.670;2023-02-28T23:24:33;620.07;;;144.10;;
48361;SDS011;34510;51.888;5.670;2023-02-28T23:29:37;610.73;;;142.83;;
48361;SDS011;34510;51.888;5.670;2023-02-28T23:34:38;638.33;;;149.10;;
48361;SDS011;34510;51.888;5.670;2023-02-28T23:39:40;579.77;;;145.87;;
48361;SDS011;34510;51.888;5.670;2023-02-28T23:44:42;607.87;;;145.77;;
48361;SDS011;34510;51.888;5.670;2023-02-28T23:49:44;578.80;;;132.47;;
48361;SDS011;34510;51.888;5.670;2023-02-28T23:54:48;569.90;;;145.40;;
48361;SDS011;34510;51.888;5.670;2023-02-28T23:59:50;656.40;;;166.23;;
